Time;durP1;ratioP1;P1;durP2;ratioP2;P2;SDS_P1;SDS_P2;PMS_P1;PMS_P2;Temp;Humidity;BMP_temperature;BMP_pressure;BME280_temperature;BME280_humidity;BME280_pressure;Samples;Min_cycle;Max_cycle;Signal;HPM_P1;HPM_P2
2022/04/19 00:01:43;;;;;;;5.07;3.38;;;;;;;;;;7709328;23;20023;-84
2022/04/19 00:04:48;;;;;;;4.22;3.30;;;;;;;;;;7709203;23;20020;-82
2022/04/19 00:07:51;;;;;;;5.15;3.20;;;;;;;;;;7708820;23;20440;-83
2022/04/19 00:10:56;;;;;;;5.70;3.63;;;;;;;;;;7722036;23;20031;-82
2022/04/19 00:13:59;;;;;;;5.45;3.42;;;;;;;;;;7710508;23;20017;-84
2022/04/19 00:17:02;;;;;;;5.55;3.70;;;;;;;;;;7710833;23;20021;-84
2022/04/19 00:20:07;;;;;;;6.43;3.53;;;;;;;;;;7709765;23;20017;-83
2022/04/19 00:23:13;;;;;;;3.88;3.10;;;;;;;;;;7716048;23;20446;-82
2022/04/19 00:26:16;;;;;;;5.93;3.58;;;;;;;;;;7711121;23;20025;-83
2022/04/19 00:29:19;;;;;;;5.53;3.42;;;;;;;;;;7708800;23;20083;-83
2022/04/19 00:32:23;;;;;;;5.68;3.25;;;;;;;;;;7707605;23;20136;-82
2022/04/19 00:35:28;;;;;;;4.97;3.53;;;;;;;;;;7708575;23;20017;-83
2022/04/19 00:38:31;;;;;;;6.18;3.60;;;;;;;;;;7708966;23;20348;-82
2022/04/19 00:41:34;;;;;;;5.18;3.80;;;;;;;;;;7708116;23;20099;-83
2022/04/19 00:44:39;;;;;;;6.47;3.83;;;;;;;;;;7710568;23;20024;-83
2022/04/19 00:47:42;;;;;;;6.15;3.97;;;;;;;;;;7721450;23;20020;-83
2022/04/19 00:50:47;;;;;;;5.43;3.63;;;;;;;;;;7708870;23;20032;-83
2022/04/19 00:53:50;;;;;;;6.82;3.65;;;;;;;;;;7707477;23;20745;-83
2022/04/19 00:56:54;;;;;;;9.68;4.00;;;;;;;;;;7711002;23;20521;-83
2022/04/19 00:59:57;;;;;;;7.35;3.92;;;;;;;;;;7711224;23;20091;-83
2022/04/19 01:03:02;;;;;;;5.07;3.60;;;;;;;;;;7710018;23;20217;-82
2022/04/19 01:06:11;;;;;;;8.30;4.00;;;;;;;;;;7723129;23;20012;-83
2022/04/19 01:09:16;;;;;;;12.48;5.47;;;;;;;;;;7723500;23;20027;-83
2022/04/19 01:15:41;;;;;;;4.95;3.88;;;;;;;;;;7724070;23;20020;-83
2022/04/19 01:18:47;;;;;;;8.90;4.25;;;;;;;;;;7722895;23;20042;-83
2022/04/19 01:21:55;;;;;;;5.75;4.20;;;;;;;;;;7723222;23;20031;-83
2022/04/19 01:25:06;;;;;;;6.90;4.75;;;;;;;;;;7710869;23;20091;-82
2022/04/19 01:28:10;;;;;;;7.15;4.22;;;;;;;;;;7721949;23;20066;-83
2022/04/19 01:31:13;;;;;;;6.57;4.10;;;;;;;;;;7710877;23;20899;-82
2022/04/19 01:34:23;;;;;;;7.38;4.72;;;;;;;;;;7723068;23;20025;-82
2022/04/19 01:37:34;;;;;;;6.55;4.63;;;;;;;;;;7721981;23;20475;-83
2022/04/19 01:40:40;;;;;;;9.60;5.13;;;;;;;;;;7722241;23;20020;-82
2022/04/19 01:43:47;;;;;;;7.20;4.65;;;;;;;;;;7710410;23;20452;-81
2022/04/19 01:46:50;;;;;;;9.63;4.93;;;;;;;;;;7711523;23;20024;-80
2022/04/19 01:49:53;;;;;;;9.52;5.80;;;;;;;;;;7709185;23;20052;-79
2022/04/19 01:52:58;;;;;;;8.93;5.47;;;;;;;;;;7710360;23;20020;-81
2022/04/19 01:56:06;;;;;;;10.63;6.45;;;;;;;;;;7722624;23;20092;-81
2022/04/19 01:59:28;;;;;;;15.57;7.25;;;;;;;;;;7723374;23;20027;-81
2022/04/19 02:02:52;;;;;;;10.13;5.70;;;;;;;;;;7721420;23;20023;-79
2022/04/19 02:05:58;;;;;;;9.55;6.43;;;;;;;;;;7722636;23;20067;-80
2022/04/19 02:09:03;;;;;;;12.32;5.97;;;;;;;;;;7710019;23;20027;-80
2022/04/19 02:12:08;;;;;;;11.63;6.50;;;;;;;;;;7721194;23;20092;-80
2022/04/19 02:15:43;;;;;;;12.57;6.07;;;;;;;;;;7660707;23;20020;-80
2022/04/19 02:18:56;;;;;;;11.40;6.43;;;;;;;;;;7722424;23;20021;-80
2022/04/19 02:21:59;;;;;;;11.82;6.82;;;;;;;;;;7710102;23;20016;-81
2022/04/19 02:25:04;;;;;;;9.80;5.97;;;;;;;;;;7708304;23;20027;-80
2022/04/19 02:28:10;;;;;;;10.43;5.70;;;;;;;;;;7722156;23;20071;-80
2022/04/19 02:31:21;;;;;;;9.27;6.38;;;;;;;;;;7722224;23;20028;-81
2022/04/19 02:34:30;;;;;;;12.05;6.15;;;;;;;;;;7722090;23;20359;-84
2022/04/19 02:37:35;;;;;;;12.55;6.20;;;;;;;;;;7720819;23;20068;-84
2022/04/19 02:40:40;;;;;;;11.80;6.65;;;;;;;;;;7709694;23;20347;-83
2022/04/19 02:43:44;;;;;;;12.27;6.05;;;;;;;;;;7722400;23;20021;-84
2022/04/19 02:46:47;;;;;;;11.77;6.57;;;;;;;;;;7710405;23;20016;-83
2022/04/19 02:49:51;;;;;;;10.85;6.35;;;;;;;;;;7709261;23;20021;-83
2022/04/19 02:52:54;;;;;;;12.85;6.70;;;;;;;;;;7709687;23;20067;-82
2022/04/19 02:55:59;;;;;;;13.65;6.47;;;;;;;;;;7709061;23;20344;-82
2022/04/19 02:59:03;;;;;;;10.45;5.70;;;;;;;;;;7708298;23;20388;-82
2022/04/19 03:02:08;;;;;;;10.60;6.00;;;;;;;;;;7721905;23;20016;-82
2022/04/19 03:05:11;;;;;;;10.85;6.05;;;;;;;;;;7709706;23;20020;-82
2022/04/19 03:08:14;;;;;;;9.88;5.78;;;;;;;;;;7708172;23;20024;-82
2022/04/19 03:11:19;;;;;;;9.23;6.32;;;;;;;;;;7710741;23;20044;-81
2022/04/19 03:14:22;;;;;;;8.57;5.65;;;;;;;;;;7709306;23;20482;-80
2022/04/19 03:17:27;;;;;;;9.27;5.90;;;;;;;;;;7720673;23;20017;-81
2022/04/19 03:20:30;;;;;;;8.93;5.50;;;;;;;;;;7708231;23;20542;-80
2022/04/19 03:30:19;;;;;;;9.55;5.88;;;;;;;;;;7720646;23;20306;-79
2022/04/19 03:33:23;;;;;;;8.50;5.72;;;;;;;;;;7708307;23;20016;-79
2022/04/19 03:36:28;;;;;;;7.97;5.22;;;;;;;;;;7721437;23;20027;-79
2022/04/19 03:39:32;;;;;;;10.93;6.60;;;;;;;;;;7708645;23;20020;-81
2022/04/19 03:42:40;;;;;;;10.25;5.75;;;;;;;;;;7707643;23;20436;-84
2022/04/19 03:45:43;;;;;;;11.35;5.95;;;;;;;;;;7721230;23;20017;-86
2022/04/19 03:48:47;;;;;;;9.45;5.93;;;;;;;;;;7708945;23;20021;-84
2022/04/19 03:51:50;;;;;;;9.27;6.25;;;;;;;;;;7707871;23;20064;-85
2022/04/19 03:54:53;;;;;;;14.20;6.43;;;;;;;;;;7707917;23;20016;-86
2022/04/19 03:58:02;;;;;;;11.40;6.32;;;;;;;;;;7721628;23;20025;-85
2022/04/19 04:01:06;;;;;;;9.93;6.22;;;;;;;;;;7720924;23;20466;-85
2022/04/19 04:04:09;;;;;;;11.70;6.65;;;;;;;;;;7709534;23;20333;-84
2022/04/19 04:07:15;;;;;;;;;;;;;;;;;;7722068;23;20016;-85
2022/04/19 04:10:18;;;;;;;10.48;5.82;;;;;;;;;;7708856;23;19922;-84
2022/04/19 04:13:22;;;;;;;11.73;6.05;;;;;;;;;;7707498;23;20017;-83
2022/04/19 04:16:26;;;;;;;11.38;6.00;;;;;;;;;;7720523;23;20027;-81
2022/04/19 04:19:29;;;;;;;9.52;5.75;;;;;;;;;;7708912;23;20043;-81
2022/04/19 04:22:35;;;;;;;10.48;5.95;;;;;;;;;;7720260;23;20023;-83
2022/04/19 04:25:38;;;;;;;10.52;6.05;;;;;;;;;;7707107;23;20021;-78
2022/04/19 04:28:45;;;;;;;12.38;6.43;;;;;;;;;;7721074;23;20016;-80
2022/04/19 04:31:50;;;;;;;11.50;6.05;;;;;;;;;;7723692;23;20020;-82
2022/04/19 04:34:56;;;;;;;9.65;5.63;;;;;;;;;;7722509;23;20016;-85
2022/04/19 04:37:58;;;;;;;11.57;6.03;;;;;;;;;;7710593;23;20447;-83
2022/04/19 04:41:07;;;;;;;8.57;5.50;;;;;;;;;;7710811;23;20017;-83
2022/04/19 04:44:12;;;;;;;9.48;5.70;;;;;;;;;;7710384;23;20479;-85
2022/04/19 04:50:38;;;;;;;9.13;6.07;;;;;;;;;;7722859;23;20023;-85
2022/04/19 04:53:42;;;;;;;10.55;5.95;;;;;;;;;;7708199;23;20017;-84
2022/04/19 04:56:52;;;;;;;11.10;6.70;;;;;;;;;;7720533;23;20099;-84
2022/04/19 04:59:59;;;;;;;10.05;6.15;;;;;;;;;;7718750;23;20020;-84
2022/04/19 05:03:14;;;;;;;9.93;5.60;;;;;;;;;;7719947;23;20493;-84
2022/04/19 05:06:18;;;;;;;11.43;6.28;;;;;;;;;;7706642;23;20464;-84
2022/04/19 05:09:23;;;;;;;9.43;6.00;;;;;;;;;;7706334;23;20051;-84
2022/04/19 05:12:27;;;;;;;12.40;6.60;;;;;;;;;;7708404;23;20025;-83
2022/04/19 05:15:31;;;;;;;19.30;6.68;;;;;;;;;;7710516;23;20055;-83
2022/04/19 05:18:36;;;;;;;11.20;6.47;;;;;;;;;;7721955;23;20021;-84
2022/04/19 05:21:41;;;;;;;12.02;6.82;;;;;;;;;;7709316;23;20515;-83
2022/04/19 05:24:44;;;;;;;15.43;7.03;;;;;;;;;;7709949;23;20075;-84
2022/04/19 05:27:47;;;;;;;11.32;6.30;;;;;;;;;;7724119;23;20372;-85
2022/04/19 05:30:52;;;;;;;11.60;6.63;;;;;;;;;;7708041;23;20390;-85
2022/04/19 05:33:55;;;;;;;14.60;6.93;;;;;;;;;;7711893;23;20024;-86
2022/04/19 05:36:58;;;;;;;10.80;5.80;;;;;;;;;;7710042;23;20020;-85
2022/04/19 05:40:01;;;;;;;10.27;6.57;;;;;;;;;;7710264;23;20040;-83
2022/04/19 05:43:04;;;;;;;14.20;6.85;;;;;;;;;;7709625;23;20051;-82
2022/04/19 05:46:09;;;;;;;11.70;6.30;;;;;;;;;;7710056;23;20027;-84
2022/04/19 05:49:12;;;;;;;10.50;6.07;;;;;;;;;;7709149;23;20016;-85
2022/04/19 05:52:17;;;;;;;11.52;7.22;;;;;;;;;;7708634;23;20716;-85
2022/04/19 05:55:21;;;;;;;10.38;6.20;;;;;;;;;;7709570;23;20028;-83
2022/04/19 05:58:25;;;;;;;9.98;6.00;;;;;;;;;;7709640;23;20013;-85
2022/04/19 06:04:54;;;;;;;15.45;8.02;;;;;;;;;;7721532;23;20070;-85
2022/04/19 06:08:00;;;;;;;13.75;7.05;;;;;;;;;;7722425;23;20021;-84
2022/04/19 06:11:03;;;;;;;10.40;6.70;;;;;;;;;;7709527;23;20036;-83
2022/04/19 06:14:07;;;;;;;10.55;6.25;;;;;;;;;;7708622;23;20024;-84
2022/04/19 06:17:14;;;;;;;14.57;6.85;;;;;;;;;;7709262;23;20067;-84
2022/04/19 06:20:18;;;;;;;11.75;6.32;;;;;;;;;;7722070;23;20088;-83
2022/04/19 06:23:21;;;;;;;11.73;6.45;;;;;;;;;;7708376;23;20469;-84
2022/04/19 06:26:24;;;;;;;10.18;6.22;;;;;;;;;;7708661;23;20029;-84
2022/04/19 06:29:33;;;;;;;11.30;6.18;;;;;;;;;;7721957;23;20017;-83
2022/04/19 06:32:40;;;;;;;8.85;5.75;;;;;;;;;;7721605;23;20096;-84
2022/04/19 06:35:47;;;;;;;10.32;5.57;;;;;;;;;;7720642;23;20017;-86
2022/04/19 06:38:51;;;;;;;10.43;5.97;;;;;;;;;;7709250;23;20020;-84
2022/04/19 06:41:54;;;;;;;10.43;5.88;;;;;;;;;;7709727;23;20016;-85
2022/04/19 06:45:01;;;;;;;11.48;6.35;;;;;;;;;;7720816;23;20023;-85
2022/04/19 06:48:09;;;;;;;10.13;5.50;;;;;;;;;;7721206;23;20347;-84
2022/04/19 06:51:12;;;;;;;8.10;4.72;;;;;;;;;;7709245;23;20021;-85
2022/04/19 06:54:34;;;;;;;9.43;5.75;;;;;;;;;;7712820;23;20347;-86
2022/04/19 06:57:38;;;;;;;11.57;5.15;;;;;;;;;;7708089;23;20470;-85
2022/04/19 07:00:41;;;;;;;9.77;5.38;;;;;;;;;;7708988;23;20020;-84
2022/04/19 07:03:50;;;;;;;11.68;6.38;;;;;;;;;;7723196;23;20021;-84
2022/04/19 07:07:07;;;;;;;14.00;7.70;;;;;;;;;;7708486;23;20017;-85
2022/04/19 07:10:12;;;;;;;7.82;4.95;;;;;;;;;;7720611;23;20048;-85
2022/04/19 07:13:23;;;;;;;15.63;8.98;;;;;;;;;;7721297;23;20050;-84
2022/04/19 07:16:30;;;;;;;11.48;6.60;;;;;;;;;;7721357;23;20032;-84
2022/04/19 07:29:34;;;;;;;8.85;4.15;;;;;;;;;;7721984;23;20063;-85
2022/04/19 07:32:37;;;;;;;7.30;3.88;;;;;;;;;;7707642;23;20196;-82
2022/04/19 07:35:54;;;;;;;7.35;4.18;;;;;;;;;;7720676;23;20039;-83
2022/04/19 07:38:59;;;;;;;6.82;4.55;;;;;;;;;;7708506;23;20094;-85
2022/04/19 07:42:12;;;;;;;6.18;4.25;;;;;;;;;;7723000;23;20059;-84
2022/04/19 07:45:15;;;;;;;5.63;3.80;;;;;;;;;;7707632;23;20028;-84
2022/04/19 07:48:20;;;;;;;9.07;4.35;;;;;;;;;;7720709;23;20400;-84
2022/04/19 07:51:23;;;;;;;5.93;4.00;;;;;;;;;;7708751;23;20063;-83
2022/04/19 07:54:28;;;;;;;6.53;4.18;;;;;;;;;;7714595;23;20024;-84
2022/04/19 07:57:32;;;;;;;6.03;3.90;;;;;;;;;;7727805;23;20031;-83
2022/04/19 08:00:36;;;;;;;7.18;4.45;;;;;;;;;;7713261;23;20471;-83
2022/04/19 08:03:40;;;;;;;14.50;4.55;;;;;;;;;;7708283;23;20517;-84
2022/04/19 08:06:43;;;;;;;7.80;4.63;;;;;;;;;;7707769;23;20075;-83
2022/04/19 08:09:47;;;;;;;7.43;4.50;;;;;;;;;;7708072;23;20023;-84
2022/04/19 08:12:51;;;;;;;6.80;4.47;;;;;;;;;;7709235;23;20021;-85
2022/04/19 08:15:54;;;;;;;6.65;4.53;;;;;;;;;;7707423;23;20403;-85
2022/04/19 08:18:57;;;;;;;6.05;4.25;;;;;;;;;;7708015;23;20020;-85
2022/04/19 08:22:00;;;;;;;9.23;3.95;;;;;;;;;;7708720;23;20021;-85
2022/04/19 08:25:10;;;;;;;7.78;4.65;;;;;;;;;;7709272;23;20051;-85
2022/04/19 08:28:14;;;;;;;7.38;4.25;;;;;;;;;;7720576;23;20012;-85
2022/04/19 08:31:17;;;;;;;5.45;4.30;;;;;;;;;;7709680;23;20027;-87
2022/04/19 08:34:20;;;;;;;10.05;5.00;;;;;;;;;;7708491;23;20047;-86
2022/04/19 08:37:23;;;;;;;7.57;4.35;;;;;;;;;;7707270;23;20016;-86
2022/04/19 08:40:27;;;;;;;7.95;4.28;;;;;;;;;;7704963;23;20043;-85
2022/04/19 08:43:33;;;;;;;8.48;4.43;;;;;;;;;;7719193;23;20020;-85
2022/04/19 08:46:40;;;;;;;7.20;4.47;;;;;;;;;;7719573;23;20020;-85
2022/04/19 08:49:43;;;;;;;9.07;4.78;;;;;;;;;;7707724;23;20261;-84
2022/04/19 08:52:46;;;;;;;15.27;8.70;;;;;;;;;;7710021;23;20020;-87
2022/04/19 08:59:11;;;;;;;11.80;7.47;;;;;;;;;;7716339;23;20047;-87
2022/04/19 09:02:22;;;;;;;10.07;5.40;;;;;;;;;;7704852;23;20047;-86
2022/04/19 09:05:26;;;;;;;5.88;4.57;;;;;;;;;;7693407;23;20043;-88
2022/04/19 09:08:30;;;;;;;7.70;4.93;;;;;;;;;;7705369;23;20016;-90
2022/04/19 09:11:35;;;;;;;8.55;4.75;;;;;;;;;;7705806;23;20044;-90
2022/04/19 09:14:38;;;;;;;;;;;;;;;;;;7708281;23;20339;-89
2022/04/19 09:17:41;;;;;;;5.78;4.40;;;;;;;;;;7710750;23;20298;-90
2022/04/19 09:20:49;;;;;;;6.35;4.45;;;;;;;;;;7711334;23;20044;-88
2022/04/19 09:23:53;;;;;;;5.90;4.25;;;;;;;;;;7717075;23;20044;-89
2022/04/19 09:26:57;;;;;;;6.70;4.65;;;;;;;;;;7710701;23;20411;-89
2022/04/19 09:30:15;;;;;;;6.78;5.03;;;;;;;;;;7712129;23;20031;-89
2022/04/19 09:33:19;;;;;;;6.85;4.47;;;;;;;;;;7723787;23;20095;-88
2022/04/19 09:36:26;;;;;;;9.55;4.63;;;;;;;;;;7710172;23;20169;-89
2022/04/19 09:39:32;;;;;;;6.60;5.00;;;;;;;;;;7724636;23;20025;-88
2022/04/19 09:42:37;;;;;;;9.45;4.10;;;;;;;;;;7711496;23;20027;-86
2022/04/19 09:45:46;;;;;;;6.68;4.40;;;;;;;;;;7724128;23;20016;-87
2022/04/19 09:48:48;;;;;;;5.70;4.40;;;;;;;;;;7710404;23;20016;-87
2022/04/19 09:51:52;;;;;;;8.25;4.50;;;;;;;;;;7711031;23;20360;-87
2022/04/19 09:55:00;;;;;;;7.00;4.50;;;;;;;;;;7711585;23;20028;-87
2022/04/19 09:58:05;;;;;;;5.40;4.20;;;;;;;;;;7724168;23;20023;-86
2022/04/19 10:11:13;;;;;;;6.22;4.05;;;;;;;;;;7722110;23;20463;-87
2022/04/19 10:14:18;;;;;;;6.22;4.63;;;;;;;;;;7672949;23;20049;-87
2022/04/19 10:17:22;;;;;;;6.25;4.60;;;;;;;;;;7685823;23;20419;-88
2022/04/19 10:20:31;;;;;;;8.00;4.38;;;;;;;;;;7672281;23;20396;-88
2022/04/19 10:23:41;;;;;;;6.47;3.80;;;;;;;;;;7679827;23;20021;-87
2022/04/19 10:26:46;;;;;;;5.00;4.10;;;;;;;;;;7672805;23;20013;-87
2022/04/19 10:29:49;;;;;;;;;;;;;;;;;;7684556;23;20071;-86
2022/04/19 10:32:56;;;;;;;6.78;4.22;;;;;;;;;;7684201;23;19971;-86
2022/04/19 10:36:20;;;;;;;6.15;4.28;;;;;;;;;;7684492;23;20021;-85
2022/04/19 10:39:24;;;;;;;5.72;4.28;;;;;;;;;;7683972;23;20355;-86
2022/04/19 10:42:29;;;;;;;7.43;4.28;;;;;;;;;;7673073;23;20043;-86
2022/04/19 10:45:32;;;;;;;7.10;4.55;;;;;;;;;;7672153;23;20339;-87
2022/04/19 10:48:37;;;;;;;5.03;4.07;;;;;;;;;;7673654;23;20017;-86
2022/04/19 10:51:40;;;;;;;54.93;32.67;;;;;;;;;;7671312;23;20467;-84
2022/04/19 10:55:02;;;;;;;6.90;4.70;;;;;;;;;;7673001;23;20021;-87
2022/04/19 10:58:20;;;;;;;6.80;4.15;;;;;;;;;;7686020;23;20100;-83
2022/04/19 11:01:30;;;;;;;7.60;4.22;;;;;;;;;;7684177;23;20032;-83
2022/04/19 11:04:38;;;;;;;5.63;4.18;;;;;;;;;;7685321;23;20334;-83
2022/04/19 11:07:42;;;;;;;5.60;3.95;;;;;;;;;;7684066;23;20068;-83
2022/04/19 11:10:45;;;;;;;5.07;4.55;;;;;;;;;;7674041;23;20535;-82
2022/04/19 11:14:07;;;;;;;7.13;4.53;;;;;;;;;;7673790;23;20017;-83
2022/04/19 11:17:23;;;;;;;5.80;4.40;;;;;;;;;;7680300;23;20021;-82
2022/04/19 11:20:46;;;;;;;13.70;4.70;;;;;;;;;;7718577;23;20028;-85
2022/04/19 11:23:51;;;;;;;11.35;6.00;;;;;;;;;;7697638;23;20266;-82
2022/04/19 11:26:57;;;;;;;;;;;;;;;;;;7647684;23;20021;-81
2022/04/19 11:30:11;;;;;;;8.15;5.63;;;;;;;;;;7673601;23;20336;-84
2022/04/19 11:33:24;;;;;;;12.75;5.90;;;;;;;;;;7684324;23;20023;-83
2022/04/19 11:36:28;;;;;;;13.88;6.15;;;;;;;;;;7686127;23;20096;-84
2022/04/19 11:49:38;;;;;;;7.80;5.55;;;;;;;;;;7686018;23;20027;-81
2022/04/19 11:52:42;;;;;;;8.48;5.88;;;;;;;;;;7673079;23;20471;-83
2022/04/19 11:55:52;;;;;;;10.93;5.90;;;;;;;;;;7696506;23;20091;-85
2022/04/19 11:58:58;;;;;;;8.25;5.55;;;;;;;;;;7683913;23;20043;-85
2022/04/19 12:02:01;;;;;;;11.02;6.55;;;;;;;;;;7672868;23;20024;-84
2022/04/19 12:05:06;;;;;;;8.75;7.07;;;;;;;;;;7671111;23;20344;-84
2022/04/19 12:08:13;;;;;;;9.25;6.50;;;;;;;;;;7671222;23;20021;-85
2022/04/19 12:11:21;;;;;;;8.68;6.50;;;;;;;;;;7685805;23;20028;-85
2022/04/19 12:14:24;;;;;;;8.90;6.90;;;;;;;;;;7670629;23;20079;-84
2022/04/19 12:17:27;;;;;;;10.25;7.30;;;;;;;;;;7671118;23;20150;-84
2022/04/19 12:20:41;;;;;;;10.45;7.30;;;;;;;;;;7696646;23;20088;-83
2022/04/19 12:23:52;;;;;;;9.27;6.88;;;;;;;;;;7679796;23;20091;-84
2022/04/19 12:27:04;;;;;;;27.75;17.75;;;;;;;;;;7675536;23;20024;-87
2022/04/19 12:30:09;;;;;;;9.85;8.15;;;;;;;;;;7685946;23;20658;-89
2022/04/19 12:33:14;;;;;;;11.00;8.60;;;;;;;;;;7673410;23;20017;-88
2022/04/19 12:36:22;;;;;;;12.10;8.98;;;;;;;;;;7683104;23;20088;-87
2022/04/19 12:39:27;;;;;;;12.38;8.50;;;;;;;;;;7672247;23;20387;-87
2022/04/19 12:42:30;;;;;;;15.32;9.30;;;;;;;;;;7671249;23;20063;-90
2022/04/19 12:45:36;;;;;;;13.50;10.38;;;;;;;;;;7683856;23;20021;-89
2022/04/19 12:48:39;;;;;;;15.55;9.90;;;;;;;;;;7672000;23;20017;-91
2022/04/19 12:51:42;;;;;;;13.20;9.57;;;;;;;;;;7674782;23;20452;-89
2022/04/19 12:54:59;;;;;;;12.05;9.20;;;;;;;;;;7676385;23;20440;-87
2022/04/19 12:58:06;;;;;;;13.98;10.35;;;;;;;;;;7686246;23;20021;-89
2022/04/19 13:01:09;;;;;;;12.57;9.60;;;;;;;;;;7686380;23;20021;-89
2022/04/19 13:04:12;;;;;;;13.63;9.40;;;;;;;;;;7673931;23;20020;-88
2022/04/19 13:13:57;;;;;;;11.93;8.38;;;;;;;;;;7710517;23;20499;-90
2022/04/19 13:17:00;;;;;;;13.43;8.90;;;;;;;;;;7673771;23;20020;-89
2022/04/19 13:20:04;;;;;;;14.45;9.73;;;;;;;;;;7673461;23;20017;-86
2022/04/19 13:23:07;;;;;;;13.48;10.05;;;;;;;;;;7672028;23;20499;-88
2022/04/19 13:26:12;;;;;;;11.15;7.90;;;;;;;;;;7672491;23;20024;-86
2022/04/19 13:29:16;;;;;;;11.85;7.53;;;;;;;;;;7687135;23;20044;-87
2022/04/19 13:32:20;;;;;;;9.82;7.65;;;;;;;;;;7673528;23;20032;-86
2022/04/19 13:35:23;;;;;;;10.40;7.75;;;;;;;;;;7672565;23;20044;-86
2022/04/19 13:38:26;;;;;;;10.68;8.00;;;;;;;;;;7648179;23;20492;-84
2022/04/19 13:41:30;;;;;;;40.47;28.85;;;;;;;;;;7674281;23;20063;-87
2022/04/19 13:44:33;;;;;;;18.83;13.23;;;;;;;;;;7672838;23;20017;-88
2022/04/19 13:47:36;;;;;;;10.65;8.05;;;;;;;;;;7674560;23;20027;-90
2022/04/19 13:50:42;;;;;;;10.93;7.30;;;;;;;;;;7686997;23;20071;-90
2022/04/19 13:53:45;;;;;;;9.65;7.10;;;;;;;;;;7672099;23;20027;-88
2022/04/19 13:56:49;;;;;;;10.18;7.60;;;;;;;;;;7672819;23;20132;-87
2022/04/19 13:59:52;;;;;;;11.60;8.40;;;;;;;;;;7672517;23;20049;-89
2022/04/19 14:02:55;;;;;;;11.85;7.68;;;;;;;;;;7672467;23;20099;-87
2022/04/19 14:05:59;;;;;;;11.20;7.10;;;;;;;;;;7672419;23;20025;-89
2022/04/19 14:09:03;;;;;;;9.80;6.95;;;;;;;;;;7677449;23;20017;-88
2022/04/19 14:12:08;;;;;;;8.77;6.95;;;;;;;;;;7673931;23;20124;-88
2022/04/19 14:15:11;;;;;;;10.50;7.00;;;;;;;;;;7671352;23;20107;-88
2022/04/19 14:18:14;;;;;;;7.22;5.90;;;;;;;;;;7673923;23;20028;-88
2022/04/19 14:21:18;;;;;;;10.90;7.07;;;;;;;;;;7674489;23;20017;-89
2022/04/19 14:24:21;;;;;;;10.10;7.35;;;;;;;;;;7673041;23;20099;-89
2022/04/19 14:27:26;;;;;;;8.98;7.13;;;;;;;;;;7674058;23;20017;-88
2022/04/19 14:33:49;;;;;;;10.40;7.07;;;;;;;;;;7710280;23;20021;-85
2022/04/19 14:36:55;;;;;;;11.80;7.55;;;;;;;;;;7694384;23;20021;-84
2022/04/19 14:40:00;;;;;;;9.10;6.82;;;;;;;;;;7704568;23;20013;-83
2022/04/19 14:43:06;;;;;;;8.77;6.97;;;;;;;;;;7696973;23;20019;-84
2022/04/19 14:46:10;;;;;;;9.43;6.65;;;;;;;;;;7673964;23;20029;-86
2022/04/19 14:49:13;;;;;;;10.70;7.22;;;;;;;;;;7671928;23;20021;-85
2022/04/19 14:52:16;;;;;;;11.27;7.43;;;;;;;;;;7673615;23;20107;-82
2022/04/19 14:55:21;;;;;;;;;;;;;;;;;;7673648;23;20021;-81
2022/04/19 14:58:25;;;;;;;8.75;7.05;;;;;;;;;;7671511;23;20240;-83
2022/04/19 15:01:28;;;;;;;6.90;5.80;;;;;;;;;;7673315;23;20048;-79
2022/04/19 15:04:31;;;;;;;13.95;9.80;;;;;;;;;;7672061;23;20085;-81
2022/04/19 15:07:35;;;;;;;6.97;6.03;;;;;;;;;;7670982;23;20095;-83
2022/04/19 15:10:38;;;;;;;7.25;5.72;;;;;;;;;;7673610;23;20028;-81
2022/04/19 15:13:53;;;;;;;10.13;6.68;;;;;;;;;;7685248;23;20021;-83
2022/04/19 15:16:56;;;;;;;6.53;5.90;;;;;;;;;;7671794;23;20028;-82
2022/04/19 15:19:59;;;;;;;6.70;5.60;;;;;;;;;;7672730;23;20100;-83
2022/04/19 15:23:02;;;;;;;6.72;5.30;;;;;;;;;;7672655;23;20344;-84
2022/04/19 15:26:05;;;;;;;8.27;5.80;;;;;;;;;;7673485;23;20033;-84
2022/04/19 15:29:10;;;;;;;8.38;6.38;;;;;;;;;;7672635;23;20060;-84
2022/04/19 15:32:14;;;;;;;7.95;6.35;;;;;;;;;;7671916;23;20041;-84
2022/04/19 15:35:17;;;;;;;8.32;7.00;;;;;;;;;;7672034;23;20021;-83
2022/04/19 15:38:20;;;;;;;6.95;6.22;;;;;;;;;;7683818;23;20028;-82
2022/04/19 15:41:23;;;;;;;8.25;6.55;;;;;;;;;;7645684;23;20099;-83
2022/04/19 15:44:27;;;;;;;12.13;7.95;;;;;;;;;;7673022;23;20347;-83
2022/04/19 15:47:30;;;;;;;12.55;8.73;;;;;;;;;;7671782;23;20079;-84
2022/04/19 15:50:34;;;;;;;9.60;8.05;;;;;;;;;;7672416;23;20017;-85
2022/04/19 15:53:37;;;;;;;9.25;7.35;;;;;;;;;;7671129;23;20098;-84
2022/04/19 15:56:40;;;;;;;9.05;7.47;;;;;;;;;;7673101;23;20092;-84
2022/04/19 15:59:45;;;;;;;8.52;7.10;;;;;;;;;;7672339;23;20073;-82
2022/04/19 16:02:48;;;;;;;8.68;7.40;;;;;;;;;;7670932;23;20031;-83
2022/04/19 16:05:51;;;;;;;7.78;6.35;;;;;;;;;;7671348;23;20028;-83
2022/04/19 16:08:54;;;;;;;16.92;11.52;;;;;;;;;;7672907;23;20025;-85
2022/04/19 16:11:57;;;;;;;8.43;6.20;;;;;;;;;;7673298;23;20021;-89
2022/04/19 16:15:04;;;;;;;6.57;5.68;;;;;;;;;;7683579;23;20384;-85
2022/04/19 16:24:49;;;;;;;9.00;6.80;;;;;;;;;;7698840;23;20028;-85
2022/04/19 16:27:52;;;;;;;11.25;6.05;;;;;;;;;;7683356;23;20498;-86
2022/04/19 16:30:57;;;;;;;;;;;;;;;;;;7686521;23;20017;-86
2022/04/19 16:34:04;;;;;;;7.63;6.03;;;;;;;;;;7707667;23;19951;-88
2022/04/19 16:37:07;;;;;;;7.75;5.88;;;;;;;;;;7672837;23;20342;-86
2022/04/19 16:40:10;;;;;;;8.85;6.53;;;;;;;;;;7672929;23;20041;-85
2022/04/19 16:43:19;;;;;;;7.85;6.07;;;;;;;;;;7684785;23;20032;-85
2022/04/19 16:46:25;;;;;;;9.82;7.35;;;;;;;;;;7683190;23;20028;-86
2022/04/19 16:49:31;;;;;;;12.75;7.63;;;;;;;;;;7672301;23;20068;-87
2022/04/19 16:52:34;;;;;;;10.60;7.40;;;;;;;;;;7671148;23;20104;-87
2022/04/19 16:55:38;;;;;;;10.73;7.15;;;;;;;;;;7672003;23;20021;-87
2022/04/19 16:58:42;;;;;;;9.45;7.25;;;;;;;;;;7671130;23;20420;-81
2022/04/19 17:01:45;;;;;;;7.97;6.78;;;;;;;;;;7670713;23;20337;-79
2022/04/19 17:04:49;;;;;;;10.02;7.00;;;;;;;;;;7670526;23;20146;-87
2022/04/19 17:07:52;;;;;;;8.63;6.70;;;;;;;;;;7673005;23;20025;-90
2022/04/19 17:10:56;;;;;;;9.57;7.13;;;;;;;;;;7670499;23;20045;-83
2022/04/19 17:13:59;;;;;;;7.93;6.43;;;;;;;;;;7671265;23;20036;-87
2022/04/19 17:17:03;;;;;;;9.95;7.00;;;;;;;;;;7670014;23;20028;-81
2022/04/19 17:20:08;;;;;;;8.10;6.05;;;;;;;;;;7672052;23;20021;-88
2022/04/19 17:23:10;;;;;;;11.02;6.90;;;;;;;;;;7671009;23;20017;-85
2022/04/19 17:26:16;;;;;;;12.27;6.78;;;;;;;;;;7669947;23;20044;-87
2022/04/19 17:29:19;;;;;;;10.15;6.53;;;;;;;;;;7682588;23;20027;-85
2022/04/19 17:32:25;;;;;;;9.52;6.82;;;;;;;;;;7672203;23;20105;-83
2022/04/19 17:35:30;;;;;;;19.80;13.43;;;;;;;;;;7684432;23;20096;-84
2022/04/19 17:38:33;;;;;;;10.68;7.97;;;;;;;;;;7673569;23;20325;-89
2022/04/19 17:41:36;;;;;;;10.40;7.60;;;;;;;;;;7674098;23;20017;-85
2022/04/19 17:44:40;;;;;;;8.70;6.13;;;;;;;;;;7675182;23;20143;-85
2022/04/19 17:47:43;;;;;;;8.43;6.43;;;;;;;;;;7672543;23;20017;-81
2022/04/19 17:57:28;;;;;;;8.73;6.55;;;;;;;;;;7721597;23;20013;-84
2022/04/19 18:00:31;;;;;;;10.02;7.32;;;;;;;;;;7672869;23;20043;-84
2022/04/19 18:03:34;;;;;;;9.30;6.70;;;;;;;;;;7674410;23;20075;-85
2022/04/19 18:06:39;;;;;;;10.48;6.40;;;;;;;;;;7674329;23;20024;-84
2022/04/19 18:09:42;;;;;;;11.00;7.90;;;;;;;;;;7671885;23;20024;-84
2022/04/19 18:12:45;;;;;;;11.32;8.07;;;;;;;;;;7674204;23;20024;-88
2022/04/19 18:15:51;;;;;;;11.93;8.65;;;;;;;;;;7674202;23;20017;-87
2022/04/19 18:18:54;;;;;;;12.13;8.55;;;;;;;;;;7686174;23;20020;-88
2022/04/19 18:25:19;;;;;;;12.20;8.10;;;;;;;;;;7699005;23;20100;-88
2022/04/19 18:28:22;;;;;;;10.73;8.20;;;;;;;;;;7672438;23;20024;-89
2022/04/19 18:31:27;;;;;;;11.70;8.25;;;;;;;;;;7671666;23;20024;-81
2022/04/19 18:34:33;;;;;;;15.70;8.38;;;;;;;;;;7709081;23;20079;-82
2022/04/19 18:37:38;;;;;;;11.60;8.75;;;;;;;;;;7673436;23;20453;-81
2022/04/19 18:40:41;;;;;;;11.57;8.25;;;;;;;;;;7675960;23;20096;-90
2022/04/19 18:43:45;;;;;;;14.30;8.48;;;;;;;;;;7673783;23;20020;-89
2022/04/19 18:46:48;;;;;;;14.98;9.32;;;;;;;;;;7673641;23;20072;-90
2022/04/19 18:49:51;;;;;;;11.38;8.52;;;;;;;;;;7672987;23;20029;-90
2022/04/19 18:52:58;;;;;;;13.63;8.60;;;;;;;;;;7683041;23;20522;-90
2022/04/19 18:56:01;;;;;;;13.82;8.88;;;;;;;;;;7673460;23;20468;-85
2022/04/19 18:59:06;;;;;;;11.73;8.85;;;;;;;;;;7673348;23;20017;-82
2022/04/19 19:02:10;;;;;;;13.50;9.40;;;;;;;;;;7696828;23;20043;-89
2022/04/19 19:05:14;;;;;;;15.27;9.83;;;;;;;;;;7672957;23;20021;-89
2022/04/19 19:08:19;;;;;;;14.27;9.90;;;;;;;;;;7673364;23;20258;-88
2022/04/19 19:11:22;;;;;;;13.93;9.93;;;;;;;;;;7683789;23;20028;-79
2022/04/19 19:14:25;;;;;;;13.52;9.35;;;;;;;;;;7672176;23;20112;-79
2022/04/19 19:17:28;;;;;;;14.90;9.48;;;;;;;;;;7671079;23;20021;-77
2022/04/19 19:20:34;;;;;;;11.90;8.85;;;;;;;;;;7685542;23;20017;-79
2022/04/19 19:23:38;;;;;;;12.02;8.18;;;;;;;;;;7670787;23;20024;-81
2022/04/19 19:26:43;;;;;;;11.88;9.00;;;;;;;;;;7674120;23;20041;-80
2022/04/19 19:29:46;;;;;;;14.55;9.02;;;;;;;;;;7671792;23;20380;-82
2022/04/19 19:32:49;;;;;;;13.57;9.05;;;;;;;;;;7673661;23;20021;-81
2022/04/19 19:35:52;;;;;;;11.93;8.38;;;;;;;;;;7672886;23;20021;-82
2022/04/19 19:38:57;;;;;;;14.07;9.60;;;;;;;;;;7671680;23;20076;-86
2022/04/19 19:42:00;;;;;;;11.50;8.38;;;;;;;;;;7673392;23;20016;-84